Time;durP1;ratioP1;P1;durP2;ratioP2;P2;SDS_P1;SDS_P2;PMS_P1;PMS_P2;Temp;Humidity;BMP_temperature;BMP_pressure;BME280_temperature;BME280_humidity;BME280_pressure;Samples;Min_cycle;Max_cycle;Signal;HPM_P1;HPM_P2
2021/10/28 00:12:51;;;;;;;5.67;4.80;;;6.90;99.90;;;;;;6147737;23;20351;-77
2021/10/28 00:15:25;;;;;;;6.87;4.90;;;6.90;99.90;;;;;;6148178;23;20163;-77
2021/10/28 00:20:30;;;;;;;7.67;4.67;;;7.00;99.90;;;;;;6157828;23;20170;-77
2021/10/28 00:22:56;;;;;;;6.97;5.20;;;7.00;99.90;;;;;;6148002;23;20155;-77
2021/10/28 00:25:22;;;;;;;5.23;4.47;;;7.00;99.90;;;;;;6121870;23;20194;-77
2021/10/28 00:27:51;;;;;;;6.27;4.70;;;7.00;99.90;;;;;;6147828;23;20229;-77
2021/10/28 00:30:19;;;;;;;7.03;4.60;;;7.10;99.90;;;;;;6147790;23;20634;-77
2021/10/28 00:32:45;;;;;;;6.03;4.67;;;7.00;99.90;;;;;;6121553;23;20179;-77
2021/10/28 00:35:10;;;;;;;7.37;4.90;;;6.90;99.90;;;;;;6148016;23;20160;-77
2021/10/28 00:37:37;;;;;;;6.53;4.37;;;6.90;99.90;;;;;;6121567;23;20205;-77
2021/10/28 00:40:06;;;;;;;6.47;4.60;;;6.80;99.90;;;;;;6147791;23;20207;-77
2021/10/28 00:42:33;;;;;;;5.27;4.30;;;6.80;99.90;;;;;;6121310;23;20163;-77
2021/10/28 00:44:59;;;;;;;5.20;4.37;;;6.80;99.90;;;;;;6147706;23;21032;-77
2021/10/28 00:47:25;;;;;;;5.97;4.20;;;6.70;99.90;;;;;;6148009;23;20258;-77
2021/10/28 00:49:50;;;;;;;7.30;4.80;;;6.70;99.90;;;;;;6147591;23;20251;-77
2021/10/28 00:52:16;;;;;;;7.03;4.67;;;6.70;99.90;;;;;;6147581;23;20199;-77
2021/10/28 00:54:43;;;;;;;4.87;4.37;;;6.70;99.90;;;;;;6147546;23;20156;-77
2021/10/28 00:57:09;;;;;;;6.53;4.87;;;6.70;99.90;;;;;;6121425;23;20190;-78
2021/10/28 00:59:35;;;;;;;6.13;4.73;;;6.60;99.90;;;;;;6121289;23;20576;-77
2021/10/28 01:02:01;;;;;;;6.27;4.50;;;6.60;99.90;;;;;;6147237;23;20188;-77
2021/10/28 01:04:27;;;;;;;7.17;4.93;;;6.70;99.90;;;;;;6122050;23;20160;-77
2021/10/28 01:06:54;;;;;;;7.30;4.93;;;6.70;99.90;;;;;;6148381;23;20190;-78
2021/10/28 01:09:22;;;;;;;6.93;4.83;;;6.70;99.90;;;;;;6121736;23;20250;-78
2021/10/28 01:11:50;;;;;;;7.00;4.83;;;6.70;99.90;;;;;;6121393;23;20570;-77
2021/10/28 01:14:15;;;;;;;6.07;4.40;;;6.80;99.90;;;;;;6148096;23;20596;-78
2021/10/28 01:16:41;;;;;;;5.83;4.40;;;6.70;99.90;;;;;;6121544;23;20183;-78
2021/10/28 01:19:08;;;;;;;5.17;4.53;;;6.70;99.90;;;;;;6147021;23;20600;-78
2021/10/28 01:21:33;;;;;;;5.47;4.43;;;6.60;99.90;;;;;;6146751;23;20800;-78
2021/10/28 01:23:59;;;;;;;6.03;4.20;;;6.50;99.90;;;;;;6121700;23;20234;-78
2021/10/28 01:26:25;;;;;;;7.07;4.73;;;6.40;99.90;;;;;;6147654;23;20202;-77
2021/10/28 01:28:57;;;;;;;5.33;4.33;;;6.40;99.90;;;;;;6147933;23;20166;-78
2021/10/28 01:31:26;;;;;;;5.37;4.33;;;6.30;99.90;;;;;;6147361;23;20430;-78
2021/10/28 01:33:52;;;;;;;5.07;4.00;;;6.40;99.90;;;;;;6148060;23;20170;-78
2021/10/28 01:36:19;;;;;;;6.20;4.93;;;6.30;99.90;;;;;;6147710;23;20188;-77
2021/10/28 01:38:45;;;;;;;6.63;4.60;;;6.30;99.90;;;;;;6147859;23;20163;-78
2021/10/28 01:41:11;;;;;;;5.83;4.73;;;6.30;99.90;;;;;;6148217;23;20152;-77
2021/10/28 01:43:37;;;;;;;8.70;5.43;;;6.30;99.90;;;;;;6121644;23;20214;-78
2021/10/28 01:46:03;;;;;;;6.10;5.40;;;6.30;99.90;;;;;;6148052;23;20335;-78
2021/10/28 01:48:29;;;;;;;6.73;5.20;;;6.30;99.90;;;;;;6121413;23;20183;-77
2021/10/28 01:50:55;;;;;;;6.47;4.93;;;6.30;99.90;;;;;;6147450;23;20166;-78
2021/10/28 01:53:21;;;;;;;8.03;5.57;;;6.20;99.90;;;;;;6147637;23;20202;-78
2021/10/28 01:55:47;;;;;;;7.00;5.00;;;6.10;99.90;;;;;;6147631;23;20152;-78
2021/10/28 01:58:14;;;;;;;6.20;5.17;;;6.20;99.90;;;;;;6147936;23;20230;-77
2021/10/28 02:00:42;;;;;;;6.70;5.20;;;6.20;99.90;;;;;;6147170;23;20163;-78
2021/10/28 02:03:07;;;;;;;7.97;5.37;;;6.10;99.90;;;;;;6121354;23;20599;-78
2021/10/28 02:05:34;;;;;;;7.27;5.50;;;6.00;99.90;;;;;;6147919;23;20152;-78
2021/10/28 02:07:59;;;;;;;6.13;5.13;;;6.00;99.90;;;;;;6147413;23;20176;-78
2021/10/28 02:10:25;;;;;;;8.67;5.50;;;6.00;99.90;;;;;;6147853;23;20504;-78
2021/10/28 02:12:55;;;;;;;8.27;5.50;;;6.00;99.90;;;;;;6120813;23;20195;-78
2021/10/28 02:15:21;;;;;;;7.20;4.90;;;6.00;99.90;;;;;;6148078;23;20151;-78
2021/10/28 02:17:47;;;;;;;6.63;5.00;;;6.00;99.90;;;;;;6147199;23;20926;-78
2021/10/28 02:20:15;;;;;;;9.00;5.80;;;6.00;99.90;;;;;;6121251;23;20164;-77
2021/10/28 02:22:42;;;;;;;7.83;4.73;;;6.00;99.90;;;;;;6147185;23;20183;-78
2021/10/28 02:25:09;;;;;;;6.97;5.13;;;6.00;99.90;;;;;;6148782;23;20219;-77
2021/10/28 02:27:34;;;;;;;5.10;4.37;;;6.00;99.90;;;;;;6123692;23;20175;-78
2021/10/28 02:30:00;;;;;;;7.33;5.03;;;5.90;99.90;;;;;;6149226;23;20227;-77
2021/10/28 02:32:26;;;;;;;8.03;5.20;;;5.90;99.90;;;;;;6149245;23;20230;-78
2021/10/28 02:34:52;;;;;;;5.83;4.00;;;5.80;99.90;;;;;;6148937;23;20604;-78
2021/10/28 02:37:19;;;;;;;5.17;4.50;;;5.90;99.90;;;;;;6149110;23;20172;-78
2021/10/28 02:39:48;;;;;;;6.27;4.60;;;5.80;99.90;;;;;;6149313;23;20156;-78
2021/10/28 02:42:14;;;;;;;6.43;5.10;;;5.90;99.90;;;;;;6149329;23;20604;-78
2021/10/28 02:44:40;;;;;;;7.90;5.00;;;5.90;99.90;;;;;;6149481;23;20916;-78
2021/10/28 02:47:06;;;;;;;6.27;5.30;;;5.90;99.90;;;;;;6149253;23;20226;-77
2021/10/28 02:49:31;;;;;;;6.40;5.33;;;5.90;99.90;;;;;;6149110;23;20155;-78
2021/10/28 02:51:57;;;;;;;7.77;5.70;;;5.90;99.90;;;;;;6148933;23;20795;-78
2021/10/28 02:54:23;;;;;;;7.13;5.50;;;6.00;99.90;;;;;;6149211;23;20175;-78
2021/10/28 02:56:49;;;;;;;8.50;6.03;;;6.00;99.90;;;;;;6149264;23;20178;-78
2021/10/28 02:59:16;;;;;;;9.33;6.60;;;6.00;99.90;;;;;;6149303;23;20163;-78
2021/10/28 03:01:44;;;;;;;6.50;5.27;;;6.10;99.90;;;;;;6147816;23;20967;-79
2021/10/28 03:04:14;;;;;;;7.77;5.50;;;6.10;99.90;;;;;;6148666;23;20166;-78
2021/10/28 03:06:40;;;;;;;6.70;5.20;;;6.00;99.90;;;;;;6148662;23;20179;-78
2021/10/28 03:09:13;;;;;;;8.47;5.23;;;5.90;99.90;;;;;;6148633;23;20186;-78
2021/10/28 03:11:40;;;;;;;8.97;5.80;;;5.90;99.90;;;;;;6122325;23;20183;-78
2021/10/28 03:14:06;;;;;;;7.83;5.70;;;5.90;99.90;;;;;;6122653;23;20167;-77
2021/10/28 03:16:45;;;;;;;9.97;6.80;;;6.00;99.90;;;;;;6150574;23;20156;-77
2021/10/28 03:19:27;;;;;;;9.53;7.33;;;6.00;99.90;;;;;;6157215;23;20246;-76
2021/10/28 03:27:22;;;;;;;13.73;8.10;;;6.10;99.90;;;;;;6148934;23;20249;-78
2021/10/28 03:29:48;;;;;;;11.57;8.30;;;6.10;99.90;;;;;;6148306;23;20605;-77
2021/10/28 03:32:14;;;;;;;10.87;7.37;;;6.10;99.90;;;;;;6148178;23;20183;-77
2021/10/28 03:34:41;;;;;;;11.03;8.03;;;6.20;99.90;;;;;;6148544;23;20140;-77
2021/10/28 03:37:11;;;;;;;13.67;9.37;;;6.20;99.90;;;;;;6147973;23;20172;-78
2021/10/28 04:04:51;;;;;;;10.50;7.63;;;5.90;99.90;;;;;;6158551;23;20140;-78
2021/10/28 04:30:47;;;;;;;10.37;7.47;;;5.50;99.90;;;;;;6148205;23;20622;-78
2021/10/28 04:33:13;;;;;;;9.43;6.93;;;5.50;99.90;;;;;;6148031;23;20176;-77
2021/10/28 04:35:38;;;;;;;9.10;6.30;;;5.50;99.90;;;;;;6121517;23;20226;-78
2021/10/28 04:38:04;;;;;;;9.80;6.37;;;5.40;99.90;;;;;;6148001;23;20203;-77
2021/10/28 04:40:30;;;;;;;10.27;7.00;;;5.40;99.90;;;;;;6148132;23;20179;-78
2021/10/28 04:42:55;;;;;;;11.00;6.00;;;5.40;99.90;;;;;;6121528;23;20577;-78
2021/10/28 04:45:21;;;;;;;8.83;5.50;;;5.30;99.90;;;;;;6148033;23;20167;-78
2021/10/28 04:47:46;;;;;;;9.83;6.33;;;5.30;99.90;;;;;;6147688;23;20183;-77
2021/10/28 04:50:12;;;;;;;9.93;6.37;;;5.30;99.90;;;;;;6148050;23;20182;-78
2021/10/28 04:52:38;;;;;;;10.27;6.50;;;5.20;99.90;;;;;;6147696;23;20191;-77
2021/10/28 04:55:04;;;;;;;9.73;6.37;;;5.20;99.90;;;;;;6148304;23;20148;-77
2021/10/28 04:57:29;;;;;;;8.80;6.03;;;5.20;99.90;;;;;;6147954;23;21106;-77
2021/10/28 04:59:55;;;;;;;7.47;5.90;;;5.20;99.90;;;;;;6147714;23;20151;-77
2021/10/28 05:02:20;;;;;;;6.90;5.63;;;5.20;99.90;;;;;;6147660;23;20164;-77
2021/10/28 05:04:46;;;;;;;9.53;5.90;;;5.20;99.90;;;;;;6122061;23;20195;-77
2021/10/28 05:07:13;;;;;;;7.70;5.70;;;5.10;99.90;;;;;;6147706;23;20246;-78
2021/10/28 05:09:41;;;;;;;9.37;6.13;;;5.10;99.90;;;;;;6121399;23;20230;-78
2021/10/28 05:12:07;;;;;;;8.60;6.30;;;5.10;99.90;;;;;;6147627;23;20175;-78
2021/10/28 05:14:33;;;;;;;8.23;5.53;;;5.00;99.90;;;;;;6147567;23;20152;-77
2021/10/28 05:16:58;;;;;;;7.77;5.60;;;5.10;99.90;;;;;;6147808;23;20179;-78
2021/10/28 05:19:33;;;;;;;8.47;6.17;;;5.00;99.90;;;;;;6121320;23;20209;-78
2021/10/28 05:21:58;;;;;;;7.97;5.73;;;5.00;99.90;;;;;;6121030;23;20917;-77
2021/10/28 05:24:24;;;;;;;7.63;5.63;;;5.00;99.90;;;;;;6147589;23;20155;-77
2021/10/28 05:26:49;;;;;;;6.87;5.13;;;5.00;99.90;;;;;;6147390;23;20184;-77
2021/10/28 05:29:15;;;;;;;8.97;6.47;;;5.00;99.90;;;;;;6147380;23;20159;-77
2021/10/28 05:31:41;;;;;;;12.03;6.33;;;5.00;99.90;;;;;;6147539;23;20679;-77
2021/10/28 05:34:06;;;;;;;8.70;6.20;;;5.10;99.90;;;;;;6147232;23;20152;-78
2021/10/28 05:36:32;;;;;;;9.37;6.40;;;5.10;99.90;;;;;;6122247;23;20605;-79
2021/10/28 05:38:57;;;;;;;12.47;6.33;;;5.00;99.90;;;;;;6150013;23;20152;-78
2021/10/28 05:41:23;;;;;;;10.50;7.17;;;5.10;99.90;;;;;;6123147;23;20217;-78
2021/10/28 05:43:48;;;;;;;10.53;7.20;;;5.00;99.90;;;;;;6149462;23;20478;-79
2021/10/28 05:46:14;;;;;;;9.23;6.37;;;4.90;99.90;;;;;;6149612;23;20159;-79
2021/10/28 05:48:40;;;;;;;8.27;5.87;;;4.80;99.90;;;;;;6148749;23;20172;-79
2021/10/28 05:51:05;;;;;;;8.37;6.40;;;4.80;99.90;;;;;;6149322;23;20151;-78
2021/10/28 05:53:31;;;;;;;8.53;6.17;;;4.80;99.90;;;;;;6148980;23;20176;-78
2021/10/28 05:55:57;;;;;;;8.90;6.80;;;4.70;99.90;;;;;;6149103;23;20159;-79
2021/10/28 05:58:22;;;;;;;9.20;6.57;;;4.70;99.90;;;;;;6148765;23;20628;-78
2021/10/28 06:00:48;;;;;;;9.60;6.77;;;4.70;99.90;;;;;;6148529;23;20152;-78
2021/10/28 06:03:14;;;;;;;9.13;6.57;;;4.70;99.90;;;;;;6148770;23;20162;-79
2021/10/28 06:05:39;;;;;;;12.53;6.73;;;4.80;99.90;;;;;;6149099;23;20503;-79
2021/10/28 06:08:05;;;;;;;15.17;6.87;;;4.90;99.90;;;;;;6148820;23;20632;-79
2021/10/28 06:10:31;;;;;;;11.20;6.63;;;4.90;99.90;;;;;;6149283;23;20497;-79
2021/10/28 06:13:03;;;;;;;21.77;7.83;;;4.90;99.90;;;;;;6122056;23;20536;-78
2021/10/28 06:15:30;;;;;;;18.27;7.80;;;4.80;99.90;;;;;;6148612;23;20133;-78
2021/10/28 06:17:59;;;;;;;12.83;7.87;;;4.80;99.90;;;;;;6145137;23;20226;-78
2021/10/28 06:20:25;;;;;;;24.60;7.67;;;4.70;99.90;;;;;;6147992;23;20151;-79
2021/10/28 06:22:52;;;;;;;24.07;7.70;;;4.70;99.90;;;;;;6148350;23;20223;-78
2021/10/28 06:25:19;;;;;;;17.07;7.10;;;4.70;99.90;;;;;;6121923;23;20189;-78
2021/10/28 06:27:46;;;;;;;10.20;6.23;;;4.70;99.90;;;;;;6122657;23;20238;-78
2021/10/28 06:30:13;;;;;;;9.67;7.00;;;4.70;99.90;;;;;;6148514;23;20510;-78
2021/10/28 06:32:43;;;;;;;8.90;5.97;;;4.70;99.90;;;;;;6148313;23;20187;-78
2021/10/28 06:35:09;;;;;;;7.23;6.07;;;4.70;99.90;;;;;;6148723;23;20156;-78
2021/10/28 06:37:35;;;;;;;7.67;5.70;;;4.70;99.90;;;;;;6148238;23;20651;-78
2021/10/28 06:40:00;;;;;;;8.27;5.63;;;4.70;99.90;;;;;;6148431;23;20350;-79
2021/10/28 06:42:26;;;;;;;8.53;5.90;;;4.70;99.90;;;;;;6148748;23;20160;-77
2021/10/28 06:44:52;;;;;;;9.00;6.50;;;4.70;99.90;;;;;;6122315;23;20163;-78
2021/10/28 06:47:17;;;;;;;10.73;7.17;;;4.70;99.90;;;;;;6121645;23;20199;-79
2021/10/28 06:49:43;;;;;;;11.40;7.57;;;4.70;99.90;;;;;;6146251;23;20167;-78
2021/10/28 06:52:10;;;;;;;9.60;6.70;;;4.80;99.90;;;;;;6121961;23;20625;-78
2021/10/28 06:54:38;;;;;;;10.03;7.13;;;4.80;99.90;;;;;;6148332;23;20159;-79
2021/10/28 07:04:59;;;;;;;10.30;7.27;;;5.20;99.90;;;;;;6147322;23;20160;-78
2021/10/28 07:07:29;;;;;;;10.43;7.43;;;5.30;99.90;;;;;;6145958;23;20175;-78
2021/10/28 07:10:23;;;;;;;10.23;7.50;;;5.40;99.90;;;;;;6145385;23;20211;-78
2021/10/28 07:13:06;;;;;;;9.53;7.57;;;5.50;99.90;;;;;;6146104;23;20535;-78
2021/10/28 07:15:36;;;;;;;12.53;7.80;;;5.60;99.90;;;;;;6147323;23;20222;-78
2021/10/28 07:18:27;;;;;;;11.00;7.70;;;5.60;99.90;;;;;;6147723;23;20191;-78
2021/10/28 07:58:21;;;;;;;13.40;10.23;;;7.50;99.90;;;;;;6147500;23;20203;-78
2021/10/28 08:17:23;;;;;;;14.17;9.40;;;8.50;99.90;;;;;;6154108;23;20187;-78
2021/10/28 08:19:50;;;;;;;13.00;9.70;;;8.60;99.90;;;;;;6146561;23;20588;-78
2021/10/28 08:22:20;;;;;;;11.77;9.47;;;8.80;99.90;;;;;;6146500;23;20151;-78
2021/10/28 08:30:21;;;;;;;10.83;8.27;;;8.90;99.90;;;;;;6146661;23;20547;-78
2021/10/28 08:32:47;;;;;;;11.23;8.53;;;9.00;99.90;;;;;;6146584;23;20167;-78
2021/10/28 08:35:13;;;;;;;12.33;9.03;;;9.00;99.90;;;;;;6146721;23;20147;-78
2021/10/28 08:37:45;;;;;;;13.17;8.83;;;9.10;99.90;;;;;;6147469;23;20530;-78
2021/10/28 08:40:14;;;;;;;11.57;8.80;;;9.20;99.90;;;;;;6122568;23;20156;-79
2021/10/28 08:42:41;;;;;;;11.30;9.07;;;9.40;99.90;;;;;;6146180;23;20547;-77
2021/10/28 08:45:07;;;;;;;11.33;8.47;;;9.60;99.90;;;;;;6120076;23;20164;-78
2021/10/28 08:47:33;;;;;;;12.30;8.60;;;9.70;99.90;;;;;;6119949;23;20673;-77
2021/10/28 08:50:11;;;;;;;9.73;8.20;;;9.80;99.90;;;;;;6145890;23;20230;-77
2021/10/28 08:55:34;;;;;;;9.93;7.73;;;10.10;99.90;;;;;;6157789;23;20144;-78
2021/10/28 08:58:32;;;;;;;11.10;8.27;;;10.10;99.90;;;;;;6148211;23;20177;-78
2021/10/28 09:24:26;;;;;;;8.55;7.00;;;11.20;99.90;;;;;;6150082;23;20154;-79
2021/10/28 09:27:07;;;;;;;6.63;5.78;;;11.30;99.90;;;;;;6149641;23;20179;-79
2021/10/28 09:44:18;;;;;;;9.82;6.72;;;11.80;99.90;;;;;;6157385;23;20144;-77
2021/10/28 09:51:44;;;;;;;8.23;6.63;;;11.90;99.90;;;;;;6146185;23;20182;-79
2021/10/28 09:54:31;;;;;;;8.45;7.05;;;12.00;99.90;;;;;;6148766;23;20392;-79
2021/10/28 09:59:41;;;;;;;8.63;6.55;;;12.30;99.90;;;;;;6145884;23;20602;-79
2021/10/28 10:02:39;;;;;;;8.18;6.78;;;12.20;99.90;;;;;;6145621;23;20235;-77
2021/10/28 10:05:17;;;;;;;6.75;5.95;;;12.30;99.90;;;;;;6119685;23;20163;-76
2021/10/28 10:07:47;;;;;;;7.15;6.18;;;12.40;99.90;;;;;;6118840;23;20202;-78
2021/10/28 10:10:18;;;;;;;7.25;5.95;;;12.40;99.90;;;;;;6118919;23;20492;-77
2021/10/28 10:12:45;;;;;;;6.60;5.70;;;12.50;99.90;;;;;;6144596;23;20203;-77
2021/10/28 10:15:12;;;;;;;6.50;5.75;;;12.60;99.90;;;;;;6121976;23;20426;-79
2021/10/28 10:17:41;;;;;;;6.63;5.57;;;12.60;99.90;;;;;;6147677;23;20432;-80
2021/10/28 10:20:09;;;;;;;6.90;5.55;;;12.40;99.90;;;;;;6151100;23;20374;-76
2021/10/28 10:25:37;;;;;;;7.40;6.05;;;12.60;99.90;;;;;;6154229;23;20169;-78
2021/10/28 11:23:39;;;;;;;4.50;3.40;;;13.90;99.90;;;;;;6150033;23;20480;-78
2021/10/28 12:16:44;;;;;;;2.67;2.17;;;15.20;99.90;;;;;;6160942;23;20593;-78
2021/10/28 12:55:22;;;;;;;2.25;1.48;;;15.70;99.90;;;;;;6157636;23;20680;-79
2021/10/28 13:52:19;;;;;;;2.58;1.95;;;16.20;99.90;;;;;;6162754;23;20493;-80
2021/10/28 13:57:40;;;;;;;5.10;1.83;;;16.20;99.90;;;;;;6152062;23;20565;-79
2021/10/28 14:32:47;;;;;;;1.02;0.80;;;16.50;99.90;;;;;;6159822;23;20179;-80
2021/10/28 15:30:01;;;;;;;58.58;47.13;;;14.10;99.90;;;;;;6148187;23;20227;-78
2021/10/28 15:38:25;;;;;;;6.32;5.03;;;13.70;99.90;;;;;;6146467;23;20180;-79
2021/10/28 15:41:06;;;;;;;9.57;7.90;;;13.50;99.90;;;;;;6134118;23;20187;-77
2021/10/28 16:24:12;;;;;;;4.90;4.30;;;10.90;99.90;;;;;;6146997;23;20155;-76
2021/10/28 16:26:38;;;;;;;4.05;2.78;;;10.70;99.90;;;;;;6122803;23;20163;-75
2021/10/28 16:29:07;;;;;;;2.97;1.95;;;10.60;99.90;;;;;;6147835;23;20152;-80
2021/10/28 16:31:35;;;;;;;2.53;2.08;;;10.50;99.90;;;;;;6147784;23;20163;-75
2021/10/28 16:34:01;;;;;;;2.60;2.40;;;10.30;99.90;;;;;;6120094;23;20187;-80
2021/10/28 16:36:27;;;;;;;2.80;2.08;;;10.20;99.90;;;;;;6146396;23;20147;-78
2021/10/28 16:38:52;;;;;;;2.30;2.10;;;10.10;99.90;;;;;;6146860;23;20166;-80
2021/10/28 16:41:19;;;;;;;2.83;2.08;;;10.00;99.90;;;;;;6117346;23;20152;-78
2021/10/28 16:43:45;;;;;;;2.63;2.10;;;9.90;99.90;;;;;;6119892;23;20218;-78
2021/10/28 16:46:10;;;;;;;2.75;2.42;;;9.80;99.90;;;;;;6119658;23;20202;-80
2021/10/28 16:48:36;;;;;;;2.50;2.30;;;9.70;99.90;;;;;;6143141;23;20176;-76
2021/10/28 16:51:03;;;;;;;2.92;2.65;;;9.60;99.90;;;;;;6120172;23;20218;-80
2021/10/28 16:53:29;;;;;;;3.05;2.40;;;9.50;99.90;;;;;;6146498;23;20179;-79
2021/10/28 16:55:55;;;;;;;3.13;2.67;;;9.50;99.90;;;;;;6120081;23;20588;-79
2021/10/28 16:58:20;;;;;;;4.13;2.67;;;9.50;99.90;;;;;;6146556;23;20655;-77
2021/10/28 17:00:50;;;;;;;2.63;2.30;;;9.40;99.90;;;;;;6118963;23;20500;-75
2021/10/28 17:03:15;;;;;;;2.40;2.20;;;9.30;99.90;;;;;;6120254;23;20298;-78
2021/10/28 17:05:42;;;;;;;2.60;2.40;;;9.20;99.90;;;;;;6120593;23;20213;-79
2021/10/28 17:08:08;;;;;;;3.77;2.80;;;9.10;99.90;;;;;;6120001;23;21080;-77
2021/10/28 17:10:34;;;;;;;3.87;2.30;;;9.00;99.90;;;;;;6148104;23;20160;-77
2021/10/28 17:12:59;;;;;;;2.50;2.30;;;8.90;99.90;;;;;;6121191;23;20222;-80
2021/10/28 17:15:25;;;;;;;2.37;2.13;;;8.80;99.90;;;;;;6148242;23;20156;-78
2021/10/28 17:17:51;;;;;;;3.10;2.50;;;8.80;99.90;;;;;;6148089;23;20199;-79
2021/10/28 17:20:18;;;;;;;2.55;2.30;;;8.70;99.90;;;;;;6148984;23;20152;-79
2021/10/28 17:22:43;;;;;;;2.83;2.50;;;8.70;99.90;;;;;;6147885;23;20159;-81
2021/10/28 17:25:17;;;;;;;3.60;2.57;;;8.60;99.90;;;;;;6121930;23;20543;-80
2021/10/28 17:27:47;;;;;;;3.13;2.50;;;8.50;99.90;;;;;;6121848;23;20239;-79
2021/10/28 17:30:14;;;;;;;3.63;2.93;;;8.50;99.90;;;;;;6147616;23;20630;-78
2021/10/28 17:32:44;;;;;;;3.33;3.00;;;8.50;99.90;;;;;;6148130;23;20268;-77
2021/10/28 17:35:11;;;;;;;5.53;4.33;;;8.60;99.90;;;;;;6121838;23;20480;-79
2021/10/28 17:37:37;;;;;;;4.57;3.73;;;8.50;99.90;;;;;;6121668;23;20203;-77
2021/10/28 17:40:04;;;;;;;5.10;4.37;;;8.50;99.90;;;;;;6148136;23;20155;-76
2021/10/28 17:42:30;;;;;;;3.10;2.80;;;8.50;99.90;;;;;;6147302;23;20589;-78
2021/10/28 17:44:57;;;;;;;4.03;2.83;;;8.40;99.90;;;;;;6122875;23;20171;-79
2021/10/28 17:47:24;;;;;;;3.67;2.53;;;8.40;99.90;;;;;;6148269;23;20180;-77
2021/10/28 17:49:51;;;;;;;2.33;2.13;;;8.50;99.90;;;;;;6146037;23;20211;-77
2021/10/28 17:52:18;;;;;;;3.17;2.37;;;8.60;99.90;;;;;;6147422;23;20659;-80
2021/10/28 17:54:44;;;;;;;3.60;2.57;;;8.70;99.90;;;;;;6147982;23;20156;-77
2021/10/28 17:57:10;;;;;;;296.03;115.23;;;8.70;99.90;;;;;;6147340;23;20175;-78
2021/10/28 17:59:36;;;;;;;39.90;21.40;;;8.70;99.90;;;;;;6148786;23;20162;-78
2021/10/28 18:02:02;;;;;;;12.23;7.00;;;8.70;99.90;;;;;;6146736;23;20717;-80
2021/10/28 18:04:28;;;;;;;12.23;11.03;;;8.60;99.90;;;;;;6121373;23;20214;-77
2021/10/28 18:06:53;;;;;;;4.90;4.40;;;8.60;99.90;;;;;;6149274;23;20175;-79
2021/10/28 18:09:22;;;;;;;3.87;3.47;;;8.50;99.90;;;;;;6123880;23;20166;-77
2021/10/28 18:11:50;;;;;;;4.67;3.00;;;8.50;99.90;;;;;;6123041;23;20160;-80
2021/10/28 18:14:16;;;;;;;2.90;2.60;;;8.40;99.90;;;;;;6150183;23;20243;-77
2021/10/28 18:16:43;;;;;;;3.30;2.60;;;8.40;99.90;;;;;;6123196;23;20231;-77
2021/10/28 18:19:09;;;;;;;2.97;2.67;;;8.30;99.90;;;;;;6122906;23;20178;-78
2021/10/28 18:21:42;;;;;;;3.80;2.80;;;8.40;99.90;;;;;;6121023;23;20191;-79
2021/10/28 18:24:09;;;;;;;4.67;3.10;;;8.40;99.90;;;;;;6146966;23;20218;-79
2021/10/28 18:26:35;;;;;;;3.80;2.83;;;8.50;99.90;;;;;;6145172;23;20207;-78
2021/10/28 18:29:00;;;;;;;2.77;2.50;;;8.50;99.90;;;;;;6145773;23;20166;-76
2021/10/28 18:31:28;;;;;;;3.33;3.03;;;8.50;99.90;;;;;;6146173;23;20215;-77
2021/10/28 18:33:56;;;;;;;3.07;2.77;;;8.60;99.90;;;;;;6147505;23;20233;-78
2021/10/28 18:36:22;;;;;;;3.07;2.70;;;8.80;99.90;;;;;;6147999;23;20155;-78
2021/10/28 18:38:49;;;;;;;3.57;2.63;;;8.80;99.90;;;;;;6146947;23;20163;-78
2021/10/28 18:41:16;;;;;;;3.80;2.53;;;8.70;99.90;;;;;;6120675;23;20631;-79
2021/10/28 18:43:46;;;;;;;4.10;3.33;;;8.50;99.90;;;;;;6121112;23;20190;-76
2021/10/28 18:46:12;;;;;;;3.93;3.00;;;8.40;99.90;;;;;;6120338;23;20199;-80
2021/10/28 18:48:38;;;;;;;5.30;3.87;;;8.30;99.90;;;;;;6144529;23;20222;-78
2021/10/28 18:51:04;;;;;;;4.90;3.57;;;8.20;99.90;;;;;;6119870;23;20167;-76
2021/10/28 18:53:35;;;;;;;7.47;4.00;;;8.10;99.90;;;;;;6119618;23;20223;-78
2021/10/28 18:56:01;;;;;;;4.73;3.87;;;8.00;99.90;;;;;;6146786;23;20144;-78
2021/10/28 18:58:26;;;;;;;5.43;4.10;;;7.90;99.90;;;;;;6119442;23;20202;-76
2021/10/28 19:00:52;;;;;;;5.67;4.20;;;7.90;99.90;;;;;;6146214;23;20159;-77
2021/10/28 19:03:19;;;;;;;5.60;4.13;;;7.80;99.90;;;;;;6119703;23;20631;-77
2021/10/28 19:05:45;;;;;;;5.07;3.40;;;7.70;99.90;;;;;;6145664;23;20156;-76
2021/10/28 19:08:13;;;;;;;3.90;3.40;;;7.70;99.90;;;;;;6148114;23;20226;-76
2021/10/28 19:10:39;;;;;;;3.70;3.30;;;7.60;99.90;;;;;;6147398;23;20163;-78
2021/10/28 19:13:04;;;;;;;5.07;3.80;;;7.50;99.90;;;;;;6147132;23;20176;-79
2021/10/28 19:15:30;;;;;;;3.50;3.20;;;7.50;99.90;;;;;;6146561;23;20279;-76
2021/10/28 19:17:56;;;;;;;4.80;3.50;;;7.40;99.90;;;;;;6146531;23;20544;-77
2021/10/28 19:20:25;;;;;;;3.47;2.90;;;7.40;99.90;;;;;;6144719;23;20156;-77
2021/10/28 19:22:51;;;;;;;4.27;3.80;;;7.30;99.90;;;;;;6118933;23;20166;-77
2021/10/28 19:25:16;;;;;;;3.40;3.00;;;7.40;99.90;;;;;;6149750;23;20136;-78
2021/10/28 19:27:42;;;;;;;8.33;4.97;;;7.30;99.90;;;;;;6149362;23;20180;-77
2021/10/28 19:30:23;;;;;;;3.20;2.90;;;7.20;99.90;;;;;;6149705;23;20155;-76
2021/10/28 19:32:50;;;;;;;3.63;3.23;;;7.20;99.90;;;;;;6123082;23;20175;-78
2021/10/28 19:35:16;;;;;;;3.80;3.30;;;7.10;99.90;;;;;;6124828;23;20213;-78
2021/10/28 19:38:03;;;;;;;4.87;3.10;;;7.10;99.90;;;;;;6150172;23;20175;-76
2021/10/28 19:40:38;;;;;;;3.50;2.80;;;7.00;99.90;;;;;;6149176;23;20147;-76
2021/10/28 19:48:16;;;;;;;3.57;2.67;;;7.00;99.90;;;;;;6149978;23;20183;-76
2021/10/28 19:50:43;;;;;;;3.30;2.97;;;7.00;99.90;;;;;;6121617;23;20167;-78
2021/10/28 19:53:09;;;;;;;3.27;2.97;;;7.00;99.90;;;;;;6149332;23;20179;-77
2021/10/28 19:55:35;;;;;;;4.10;3.27;;;6.90;99.90;;;;;;6150660;23;20547;-78
2021/10/28 19:58:01;;;;;;;5.07;3.70;;;6.90;99.90;;;;;;6149838;23;20722;-78
2021/10/28 20:00:48;;;;;;;4.10;3.37;;;6.80;99.90;;;;;;6149576;23;20151;-75
2021/10/28 20:21:22;;;;;;;5.40;4.90;;;6.60;99.90;;;;;;6149396;23;20151;-78
2021/10/28 20:23:50;;;;;;;3.97;3.53;;;6.50;99.90;;;;;;6150387;23;20159;-79
2021/10/28 20:26:16;;;;;;;5.10;3.77;;;6.60;99.90;;;;;;6151136;23;20179;-78
2021/10/28 20:28:44;;;;;;;5.00;3.80;;;6.60;99.90;;;;;;6124428;23;20179;-78
2021/10/28 20:31:10;;;;;;;5.53;3.70;;;6.70;99.90;;;;;;6124188;23;20222;-78
2021/10/28 20:33:42;;;;;;;6.87;4.57;;;6.70;99.90;;;;;;6150539;23;20203;-79
2021/10/28 20:38:52;;;;;;;9.07;6.17;;;6.50;99.90;;;;;;6160249;23;20147;-78
2021/10/28 20:41:18;;;;;;;6.03;5.20;;;6.50;99.90;;;;;;6150254;23;20167;-77
2021/10/28 20:43:44;;;;;;;6.67;5.00;;;6.40;99.90;;;;;;6150721;23;20167;-78
2021/10/28 20:46:10;;;;;;;6.43;4.90;;;6.40;99.90;;;;;;6124931;23;20163;-80
2021/10/28 20:48:41;;;;;;;6.70;4.40;;;6.40;99.90;;;;;;6150182;23;20654;-76
2021/10/28 20:51:07;;;;;;;4.67;3.93;;;6.30;99.90;;;;;;6124449;23;20156;-79
2021/10/28 20:53:33;;;;;;;5.17;4.30;;;6.30;99.90;;;;;;6150261;23;20179;-78
2021/10/28 20:56:00;;;;;;;5.73;3.77;;;6.30;99.90;;;;;;6123709;23;20243;-75
2021/10/28 20:58:26;;;;;;;5.40;4.43;;;6.20;99.90;;;;;;6122812;23;20252;-78
2021/10/28 21:00:52;;;;;;;6.30;4.67;;;6.20;99.90;;;;;;6124274;23;20816;-80
2021/10/28 21:03:18;;;;;;;5.07;4.13;;;6.20;99.90;;;;;;6150027;23;20933;-79
2021/10/28 21:05:44;;;;;;;5.07;4.07;;;6.10;99.90;;;;;;6124244;23;20246;-80
2021/10/28 21:08:10;;;;;;;4.53;4.13;;;6.10;99.90;;;;;;6150555;23;20233;-78
2021/10/28 21:10:36;;;;;;;4.50;3.97;;;6.10;99.90;;;;;;6150587;23;20551;-76
2021/10/28 21:13:01;;;;;;;4.70;3.90;;;5.90;99.90;;;;;;6150123;23;20242;-78
2021/10/28 21:15:27;;;;;;;4.40;3.93;;;5.90;99.90;;;;;;6124208;23;20276;-78
2021/10/28 21:17:54;;;;;;;5.00;3.97;;;5.80;99.90;;;;;;6144177;23;20187;-80
2021/10/28 21:20:20;;;;;;;5.93;4.60;;;5.70;99.90;;;;;;6149366;23;20219;-81
2021/10/28 21:22:46;;;;;;;5.13;4.40;;;5.90;99.90;;;;;;6149810;23;20159;-79
2021/10/28 21:25:12;;;;;;;5.13;4.10;;;6.00;99.90;;;;;;6149894;23;20159;-80
2021/10/28 21:27:38;;;;;;;5.20;4.23;;;5.90;99.90;;;;;;6149532;23;20183;-77
2021/10/28 21:30:06;;;;;;;6.13;4.63;;;5.90;99.90;;;;;;6149659;23;20641;-78
2021/10/28 21:32:32;;;;;;;7.10;5.07;;;5.90;99.90;;;;;;6148616;23;20222;-78
2021/10/28 21:34:58;;;;;;;6.87;4.73;;;5.80;99.90;;;;;;6123775;23;20159;-79
2021/10/28 21:37:23;;;;;;;7.07;5.07;;;5.90;99.90;;;;;;6149483;23;20519;-76
2021/10/28 21:39:54;;;;;;;9.47;6.23;;;5.80;99.90;;;;;;6149353;23;20155;-77
2021/10/28 21:42:20;;;;;;;9.10;6.70;;;5.70;99.90;;;;;;6150144;23;20140;-78
2021/10/28 21:44:47;;;;;;;8.07;6.50;;;5.70;99.90;;;;;;6149462;23;20686;-79
2021/10/28 21:47:13;;;;;;;7.73;6.17;;;5.70;99.90;;;;;;6149279;23;20183;-77
2021/10/28 21:49:38;;;;;;;8.53;6.90;;;5.60;99.90;;;;;;6149070;23;20219;-78
2021/10/28 21:52:15;;;;;;;7.97;6.33;;;5.60;99.90;;;;;;6123078;23;20186;-75
2021/10/28 21:54:52;;;;;;;8.10;6.67;;;5.60;99.90;;;;;;6149200;23;20143;-76
2021/10/28 22:02:28;;;;;;;6.77;5.80;;;5.40;99.90;;;;;;6148875;23;20210;-78
2021/10/28 22:24:12;;;;;;;9.67;7.03;;;5.30;99.90;;;;;;6088191;23;20218;-76
2021/10/28 22:26:38;;;;;;;11.00;7.53;;;5.20;99.90;;;;;;6148944;23;20140;-78